Wetterdaten: Samstag, 06.01.2007
Datum Zeit Temp. A. Feuchte A. Luftdruck Regen Wind Richtung Richtung UV Solar Windben
06.01.2007 00:12 9,3 C 90 % 1017,0 hPa 0,0 mm 26,1 km/h (4 Bft) SW 215 0 UV-I 0 W/m 26,1 km/h (4 Bft)
06.01.2007 00:27 9,3 C 91 % 1017,0 hPa 0,0 mm 25,5 km/h (4 Bft) SW 220 0 UV-I 0 W/m 25,5 km/h (4 Bft)
06.01.2007 00:42 9,2 C 91 % 1017,0 hPa 0,0 mm 12,3 km/h (3 Bft) S 190 0 UV-I 0 W/m 12,3 km/h (3 Bft)
06.01.2007 00:57 9,2 C 91 % 1017,0 hPa 0,0 mm 10,2 km/h (2 Bft) S-SW 210 0 UV-I 0 W/m 10,2 km/h (2 Bft)
06.01.2007 01:12 9,2 C 91 % 1017,0 hPa 0,0 mm 11,1 km/h (2 Bft) SW 220 0 UV-I 0 W/m 11,1 km/h (2 Bft)
06.01.2007 01:27 9,2 C 91 % 1017,0 hPa 0,0 mm 12,5 km/h (3 Bft) S-SW 195 0 UV-I 0 W/m 12,5 km/h (3 Bft)
06.01.2007 01:42 9,1 C 92 % 1017,0 hPa 0,4 mm 16,3 km/h (3 Bft) S-SW 200 0 UV-I 0 W/m 16,3 km/h (3 Bft)
06.01.2007 01:57 9,0 C 94 % 1017,0 hPa 0,0 mm 22,6 km/h (4 Bft) SW 220 0 UV-I 0 W/m 22,6 km/h (4 Bft)
06.01.2007 02:11 8,9 C 97 % 1017,0 hPa 0,4 mm 15,5 km/h (3 Bft) S-SW 200 0 UV-I 0 W/m 15,5 km/h (3 Bft)
06.01.2007 02:26 8,9 C 98 % 1017,0 hPa 0,7 mm 12,8 km/h (3 Bft) S-SW 205 0 UV-I 0 W/m 12,8 km/h (3 Bft)
06.01.2007 02:41 8,9 C 99 % 1017,0 hPa 0,4 mm 16,8 km/h (3 Bft) S-SW 200 0 UV-I 0 W/m 16,8 km/h (3 Bft)
06.01.2007 02:56 8,8 C 100 % 1017,0 hPa 0,0 mm 21,1 km/h (4 Bft) S-SW 210 0 UV-I 0 W/m 21,1 km/h (4 Bft)
06.01.2007 03:11 8,8 C 100 % 1017,0 hPa 0,4 mm 17,8 km/h (3 Bft) S-SW 210 0 UV-I 0 W/m 17,8 km/h (3 Bft)
06.01.2007 03:26 8,8 C 100 % 1017,0 hPa 0,4 mm 11,0 km/h (2 Bft) S-SW 205 0 UV-I 0 W/m 11,0 km/h (2 Bft)
06.01.2007 03:37 8,9 C 100 % 1017,0 hPa 0,4 mm 20,5 km/h (4 Bft) SW 215 0 UV-I 0 W/m 20,5 km/h (4 Bft)
06.01.2007 03:52 8,9 C 100 % 1017,0 hPa 0,0 mm 24,2 km/h (4 Bft) SW 215 0 UV-I 0 W/m 24,2 km/h (4 Bft)
06.01.2007 04:07 9,0 C 100 % 1017,0 hPa 0,0 mm 23,6 km/h (4 Bft) S-SW 200 0 UV-I 0 W/m 23,6 km/h (4 Bft)
06.01.2007 04:22 9,1 C 100 % 1017,0 hPa 0,4 mm 25,8 km/h (4 Bft) SW 215 0 UV-I 0 W/m 25,8 km/h (4 Bft)
06.01.2007 04:37 9,2 C 100 % 1017,0 hPa 0,4 mm 21,1 km/h (4 Bft) SW 225 0 UV-I 0 W/m 21,1 km/h (4 Bft)
06.01.2007 04:52 9,2 C 100 % 1017,0 hPa 0,0 mm 21,0 km/h (4 Bft) SW 225 0 UV-I 0 W/m 21,0 km/h (4 Bft)
06.01.2007 05:07 9,5 C 100 % 1017,0 hPa 0,0 mm 21,0 km/h (4 Bft) SW 235 0 UV-I 0 W/m 21,0 km/h (4 Bft)
06.01.2007 05:21 9,8 C 100 % 1017,0 hPa 0,0 mm 17,6 km/h (3 Bft) SW 225 0 UV-I 0 W/m 17,6 km/h (3 Bft)
06.01.2007 05:36 9,8 C 100 % 1017,0 hPa 0,0 mm 19,8 km/h (3 Bft) SW 230 0 UV-I 0 W/m 19,8 km/h (3 Bft)
06.01.2007 05:51 10,0 C 96 % 1017,0 hPa 0,0 mm 26,8 km/h (4 Bft) SW 230 0 UV-I 0 W/m 26,8 km/h (4 Bft)
06.01.2007 06:06 10,0 C 90 % 1017,0 hPa 0,0 mm 27,3 km/h (4 Bft) W-SW 250 0 UV-I 0 W/m 27,3 km/h (4 Bft)
06.01.2007 06:21 10,0 C 89 % 1017,0 hPa 0,0 mm 23,3 km/h (4 Bft) SW 225 0 UV-I 0 W/m 23,3 km/h (4 Bft)
06.01.2007 06:36 9,9 C 89 % 1017,0 hPa 0,0 mm 25,6 km/h (4 Bft) SW 220 0 UV-I 0 W/m 25,6 km/h (4 Bft)
06.01.2007 06:51 10,1 C 86 % 1017,0 hPa 0,0 mm 33,5 km/h (5 Bft) W-SW 240 0 UV-I 0 W/m 33,5 km/h (5 Bft)
06.01.2007 07:06 10,2 C 83 % 1017,0 hPa 0,0 mm 34,4 km/h (5 Bft) SW 230 0 UV-I 0 W/m 34,4 km/h (5 Bft)
06.01.2007 07:21 9,9 C 84 % 1017,0 hPa 0,0 mm 36,3 km/h (5 Bft) SW 230 0 UV-I 0 W/m 36,3 km/h (5 Bft)
06.01.2007 07:36 9,6 C 84 % 1017,0 hPa 0,0 mm 38,9 km/h (6 Bft) SW 225 0 UV-I 0 W/m 38,9 km/h (6 Bft)
06.01.2007 07:51 9,5 C 83 % 1017,0 hPa 0,0 mm 28,5 km/h (4 Bft) SW 235 0 UV-I 0 W/m 28,5 km/h (4 Bft)
06.01.2007 08:06 9,3 C 84 % 1017,0 hPa 0,0 mm 25,0 km/h (4 Bft) SW 235 0 UV-I 0 W/m 25,0 km/h (4 Bft)
06.01.2007 08:21 9,2 C 84 % 1018,0 hPa 0,0 mm 24,1 km/h (4 Bft) SW 235 0 UV-I 0 W/m 24,1 km/h (4 Bft)
06.01.2007 08:36 9,1 C 85 % 1018,0 hPa 0,0 mm 32,1 km/h (5 Bft) W-SW 250 0 UV-I 0 W/m 32,1 km/h (5 Bft)
06.01.2007 08:51 9,2 C 83 % 1018,0 hPa 0,0 mm 28,2 km/h (4 Bft) SW 230 0 UV-I 0 W/m 28,2 km/h (4 Bft)
06.01.2007 09:06 9,0 C 82 % 1018,0 hPa 0,0 mm 20,6 km/h (4 Bft) W-SW 250 0 UV-I 0 W/m 20,6 km/h (4 Bft)
06.01.2007 09:21 8,7 C 83 % 1018,0 hPa 0,0 mm 26,6 km/h (4 Bft) W-SW 245 0 UV-I 0 W/m 26,6 km/h (4 Bft)
06.01.2007 09:36 8,4 C 84 % 1018,0 hPa 0,0 mm 24,9 km/h (4 Bft) SW 230 0 UV-I 0 W/m 24,9 km/h (4 Bft)
06.01.2007 09:51 8,1 C 85 % 1018,0 hPa 0,0 mm 19,8 km/h (3 Bft) SW 235 0 UV-I 0 W/m 19,8 km/h (3 Bft)
06.01.2007 10:06 7,9 C 87 % 1019,0 hPa 0,0 mm 18,9 km/h (3 Bft) SW 235 0 UV-I 0 W/m 18,9 km/h (3 Bft)
06.01.2007 10:21 8,0 C 86 % 1019,0 hPa 0,0 mm 25,1 km/h (4 Bft) SW 225 0 UV-I 0 W/m 25,1 km/h (4 Bft)
06.01.2007 10:36 8,2 C 85 % 1019,0 hPa 0,0 mm 22,7 km/h (4 Bft) SW 220 0 UV-I 0 W/m 22,7 km/h (4 Bft)
06.01.2007 10:51 8,4 C 85 % 1019,0 hPa 0,0 mm 18,1 km/h (3 Bft) SW 215 0 UV-I 0 W/m 18,1 km/h (3 Bft)
06.01.2007 11:06 8,6 C 83 % 1018,0 hPa 0,0 mm 19,5 km/h (3 Bft) SW 235 0 UV-I 0 W/m 19,5 km/h (3 Bft)
06.01.2007 11:21 8,7 C 83 % 1019,0 hPa 0,0 mm 20,5 km/h (4 Bft) SW 225 0 UV-I 0 W/m 20,5 km/h (4 Bft)
06.01.2007 11:36 8,8 C 82 % 1018,0 hPa 0,0 mm 20,0 km/h (4 Bft) SW 230 0 UV-I 0 W/m 20,0 km/h (4 Bft)
06.01.2007 11:51 9,0 C 80 % 1018,0 hPa 0,0 mm 20,0 km/h (4 Bft) SW 225 0 UV-I 0 W/m 20,0 km/h (4 Bft)
06.01.2007 12:06 9,1 C 78 % 1018,0 hPa 0,0 mm 18,3 km/h (3 Bft) SW 215 0 UV-I 0 W/m 18,3 km/h (3 Bft)
06.01.2007 12:21 9,2 C 77 % 1018,0 hPa 0,0 mm 25,5 km/h (4 Bft) SW 215 0 UV-I 0 W/m 25,5 km/h (4 Bft)
06.01.2007 12:36 9,4 C 78 % 1018,0 hPa 0,0 mm 12,1 km/h (2 Bft) S 185 0 UV-I 0 W/m 12,1 km/h (2 Bft)
06.01.2007 12:51 9,0 C 76 % 1018,0 hPa 0,0 mm 22,1 km/h (4 Bft) S-SW 195 0 UV-I 0 W/m 22,1 km/h (4 Bft)
06.01.2007 13:06 8,6 C 77 % 1018,0 hPa 0,0 mm 29,0 km/h (5 Bft) SW 220 0 UV-I 0 W/m 29,0 km/h (5 Bft)
06.01.2007 13:21 8,4 C 82 % 1017,0 hPa 0,0 mm 22,6 km/h (4 Bft) SW 230 0 UV-I 0 W/m 22,6 km/h (4 Bft)
06.01.2007 13:36 8,4 C 81 % 1017,0 hPa 0,0 mm 13,3 km/h (3 Bft) W 280 0 UV-I 0 W/m 13,3 km/h (3 Bft)
06.01.2007 13:51 8,4 C 80 % 1017,0 hPa 0,0 mm 6,6 km/h (2 Bft) W-SW 240 0 UV-I 0 W/m 6,6 km/h (2 Bft)
06.01.2007 14:06 8,2 C 82 % 1017,0 hPa 0,0 mm 5,4 km/h (1 Bft) W-SW 240 0 UV-I 0 W/m 5,4 km/h (1 Bft)
06.01.2007 14:21 8,1 C 83 % 1017,0 hPa 0,0 mm 11,7 km/h (2 Bft) W-SW 240 0 UV-I 0 W/m 11,7 km/h (2 Bft)
06.01.2007 14:37 7,7 C 88 % 1017,0 hPa 0,4 mm 7,4 km/h (2 Bft) W-SW 250 0 UV-I 0 W/m 7,4 km/h (2 Bft)
06.01.2007 14:51 7,8 C 91 % 1017,0 hPa 0,0 mm 7,0 km/h (2 Bft) SW 220 0 UV-I 0 W/m 7,0 km/h (2 Bft)
06.01.2007 15:06 7,8 C 93 % 1016,0 hPa 0,0 mm 4,7 km/h (1 Bft) S-SW 195 0 UV-I 0 W/m 4,7 km/h (1 Bft)
06.01.2007 15:21 7,7 C 94 % 1016,0 hPa 0,0 mm 0,0 km/h (0 Bft) S-SW 200 0 UV-I 0 W/m 0,0 km/h (0 Bft)
06.01.2007 15:36 7,6 C 95 % 1016,0 hPa 0,0 mm 0,0 km/h (0 Bft) S-SW 205 0 UV-I 0 W/m 0,0 km/h (0 Bft)
06.01.2007 15:51 7,6 C 96 % 1016,0 hPa 0,0 mm 0,0 km/h (0 Bft) S 180 0 UV-I 0 W/m 0,0 km/h (0 Bft)
06.01.2007 16:06 7,6 C 97 % 1016,0 hPa 0,0 mm 0,0 km/h (0 Bft) S 180 0 UV-I 0 W/m 0,0 km/h (0 Bft)
06.01.2007 16:21 7,6 C 97 % 1016,0 hPa 0,0 mm 0,0 km/h (0 Bft) S 185 0 UV-I 0 W/m 0,0 km/h (0 Bft)
06.01.2007 16:36 7,5 C 98 % 1016,0 hPa 0,4 mm 0,0 km/h (0 Bft) SO 125 0 UV-I 0 W/m 0,0 km/h (0 Bft)
06.01.2007 16:51 7,5 C 99 % 1015,0 hPa 0,0 mm 0,0 km/h (0 Bft) SO 125 0 UV-I 0 W/m 0,0 km/h (0 Bft)
06.01.2007 17:06 7,5 C 99 % 1015,0 hPa 0,4 mm 0,0 km/h (0 Bft) SO 125 0 UV-I 0 W/m 0,0 km/h (0 Bft)
06.01.2007 17:21 7,5 C 99 % 1015,0 hPa 0,0 mm 0,0 km/h (0 Bft) SO 125 0 UV-I 0 W/m 0,0 km/h (0 Bft)
06.01.2007 17:36 7,4 C 100 % 1015,0 hPa 0,7 mm 0,0 km/h (0 Bft) SO 125 0 UV-I 0 W/m 0,0 km/h (0 Bft)
06.01.2007 17:51 7,2 C 100 % 1015,0 hPa 0,4 mm 0,0 km/h (0 Bft) SO 125 0 UV-I 0 W/m 0,0 km/h (0 Bft)
06.01.2007 18:06 7,3 C 100 % 1015,0 hPa 0,4 mm 0,0 km/h (0 Bft) SO 125 0 UV-I 0 W/m 0,0 km/h (0 Bft)
06.01.2007 18:21 7,4 C 100 % 1014,0 hPa 0,4 mm 0,0 km/h (0 Bft) O-SO 115 0 UV-I 0 W/m 0,0 km/h (0 Bft)
06.01.2007 18:36 7,5 C 100 % 1014,0 hPa 0,0 mm 0,0 km/h (0 Bft) O-SO 115 0 UV-I 0 W/m 0,0 km/h (0 Bft)
06.01.2007 18:52 7,5 C 100 % 1013,0 hPa 0,4 mm 6,2 km/h (2 Bft) O-SO 115 0 UV-I 0 W/m 6,2 km/h (2 Bft)
06.01.2007 19:07 7,5 C 100 % 1013,0 hPa 0,7 mm 0,0 km/h (0 Bft) O-SO 110 0 UV-I 0 W/m 0,0 km/h (0 Bft)
06.01.2007 19:21 7,6 C 100 % 1013,0 hPa 0,7 mm 9,2 km/h (2 Bft) O-SO 120 0 UV-I 0 W/m 9,2 km/h (2 Bft)
06.01.2007 19:36 7,6 C 100 % 1013,0 hPa 0,4 mm 0,0 km/h (0 Bft) W-NW 300 0 UV-I 0 W/m 0,0 km/h (0 Bft)
06.01.2007 19:52 7,8 C 100 % 1012,0 hPa 0,4 mm 4,0 km/h (1 Bft) O-SO 120 0 UV-I 0 W/m 4,0 km/h (1 Bft)
06.01.2007 20:06 8,1 C 100 % 1012,0 hPa 0,4 mm 0,0 km/h (0 Bft) O-SO 120 0 UV-I 0 W/m 0,0 km/h (0 Bft)
06.01.2007 20:21 8,2 C 100 % 1012,0 hPa 0,4 mm 0,0 km/h (0 Bft) O-SO 120 0 UV-I 0 W/m 0,0 km/h (0 Bft)
06.01.2007 20:37 8,2 C 100 % 1011,0 hPa 0,0 mm 0,0 km/h (0 Bft) O-SO 120 0 UV-I 0 W/m 0,0 km/h (0 Bft)
06.01.2007 20:51 8,5 C 100 % 1011,0 hPa 0,4 mm 0,0 km/h (0 Bft) O-SO 115 0 UV-I 0 W/m 0,0 km/h (0 Bft)
06.01.2007 21:06 8,8 C 100 % 1011,0 hPa 0,0 mm 0,0 km/h (0 Bft) SO 135 0 UV-I 0 W/m 0,0 km/h (0 Bft)
06.01.2007 21:21 9,3 C 100 % 1011,0 hPa 0,0 mm 13,7 km/h (3 Bft) S 190 0 UV-I 0 W/m 13,7 km/h (3 Bft)
06.01.2007 21:36 9,7 C 100 % 1011,0 hPa 0,4 mm 20,6 km/h (4 Bft) S-SW 200 0 UV-I 0 W/m 20,6 km/h (4 Bft)
06.01.2007 21:51 10,0 C 100 % 1011,0 hPa 0,0 mm 12,8 km/h (3 Bft) S-SW 200 0 UV-I 0 W/m 12,8 km/h (3 Bft)
06.01.2007 22:06 10,5 C 100 % 1010,0 hPa 0,0 mm 24,8 km/h (4 Bft) S-SW 195 0 UV-I 0 W/m 24,8 km/h (4 Bft)
06.01.2007 22:21 10,5 C 98 % 1010,0 hPa 0,0 mm 18,5 km/h (3 Bft) S 190 0 UV-I 0 W/m 18,5 km/h (3 Bft)
06.01.2007 22:36 10,6 C 96 % 1010,0 hPa 0,0 mm 24,7 km/h (4 Bft) S-SW 195 0 UV-I 0 W/m 24,7 km/h (4 Bft)
06.01.2007 22:51 10,5 C 94 % 1010,0 hPa 0,0 mm 24,8 km/h (4 Bft) S-SW 195 0 UV-I 0 W/m 24,8 km/h (4 Bft)
06.01.2007 23:06 10,5 C 94 % 1010,0 hPa 0,7 mm 18,6 km/h (3 Bft) S 185 0 UV-I 0 W/m 18,6 km/h (3 Bft)
06.01.2007 23:21 10,5 C 94 % 1010,0 hPa 0,4 mm 28,3 km/h (4 Bft) S-SW 195 0 UV-I 0 W/m 28,3 km/h (4 Bft)
06.01.2007 23:36 10,6 C 94 % 1010,0 hPa 0,4 mm 20,6 km/h (4 Bft) SW 215 0 UV-I 0 W/m 20,6 km/h (4 Bft)
06.01.2007 23:51 10,4 C 93 % 1010,0 hPa 0,0 mm 22,3 km/h (4 Bft) S-SW 205 0 UV-I 0 W/m 22,3 km/h (4 Bft)
_ Min-Zeit 17:51 12:51 22:06 - 15:21 - - - - 15:21
Minimum _ 7,2 C 76 % 1010,0 hPa - 0,0 km/h (0 Bft) - - - - 0,0 km/h (0 Bft)
_ Max-Zeit 22:36 02:56 10:06 02:26 07:36 - - 00:12 00:12 07:36
Maximum _ 10,6 C 100 % 1019,0 hPa 0,7 mm 38,9 km/h
SW (6 Bft)
- - 0 UV-I 0 W/m 38,9 km/h
N (6 Bft)
Durchschnitt _ 8,8 C 92 % 1015,7 hPa #11,9 mm 15,6 km/h (3 Bft) SW - 0 UV-I 0 W/m 15,6 km/h (3 Bft)